This is the latest recevied weather packets stored in our database for station/object SQ3VAS-10. If no packets are shown the sender has not sent any weather packets the latest 10 day(s).
| Time | Temp. | Humidity | Pressure | Rain* | Wind** | Luminosity | Snow |
|---|---|---|---|---|---|---|---|
| 1778336977 | 28.33° C | 22% | 1019.7 hPa | - | - | - | - |
| 1778336404 | 28.33° C | 23% | 1019.8 hPa | - | - | - | - |
| 1778335830 | 27.78° C | 25% | 1019.9 hPa | - | - | - | - |
| 1778335257 | 26.67° C | 26% | 1020.2 hPa | - | - | - | - |
| 1778334688 | 27.22° C | 24% | 1020.3 hPa | - | - | - | - |
| 1778334113 | 29.44° C | 22% | 1020.1 hPa | - | - | - | - |
| 1778333539 | 28.33° C | 24% | 1020.2 hPa | - | - | - | - |
| 1778332968 | 29.44° C | 26% | 1020.3 hPa | - | - | - | - |
| 1778332397 | 28.89° C | 25% | 1020.3 hPa | - | - | - | - |
| 1778331823 | 28.33° C | 25% | 1020.4 hPa | - | - | - | - |
| 1778331251 | 29.44° C | 23% | 1020.3 hPa | - | - | - | - |
| 1778330676 | 30° C | 23% | 1020.5 hPa | - | - | - | - |
| 1778330100 | 28.33° C | 26% | 1020.5 hPa | - | - | - | - |
| 1778329526 | 25.56° C | 27% | 1020.9 hPa | - | - | - | - |
| 1778328955 | 28.33° C | 25% | 1020.8 hPa | - | - | - | - |
| 1778328383 | 26.11° C | 25% | 1020.9 hPa | - | - | - | - |
| 1778327811 | 24.44° C | 28% | 1021 hPa | - | - | - | - |
| 1778327237 | 27.22° C | 27% | 1020.9 hPa | - | - | - | - |
| 1778326666 | 27.78° C | 27% | 1020.9 hPa | - | - | - | - |
| 1778326086 | 27.78° C | 27% | 1020.9 hPa | - | - | - | - |
| 1778325511 | 25.56° C | 28% | 1021.2 hPa | - | - | - | - |
| 1778324940 | 23.89° C | 29% | 1021.3 hPa | - | - | - | - |
| 1778324367 | 23.89° C | 31% | 1021.5 hPa | - | - | - | - |
| 1778323792 | 23.89° C | 33% | 1021.5 hPa | - | - | - | - |
| 1778323217 | 26.11° C | 31% | 1021.3 hPa | - | - | - | - |
* Rain since midnight (hover to see other rain measurements)
** Current wind speed in m/s (hover to see current wind gust speed)